sensor_id;sensor_type;location;lat;lon;timestamp;pressure;altitude;pressure_sealevel;temperature;humidity
65760;BME280;52496;51.082;5.066;2023-04-06T00:01:01;101678.34;;;1.44;100.00
65760;BME280;52496;51.082;5.066;2023-04-06T00:03:31;101685.63;;;1.41;100.00
65760;BME280;52496;51.082;5.066;2023-04-06T00:06:02;101683.91;;;1.40;100.00
65760;BME280;52496;51.082;5.066;2023-04-06T00:08:33;101682.38;;;1.37;100.00
65760;BME280;52496;51.082;5.066;2023-04-06T00:11:05;101680.78;;;1.34;100.00
65760;BME280;52496;51.082;5.066;2023-04-06T00:13:37;101674.75;;;1.32;100.00
65760;BME280;52496;51.082;5.066;2023-04-06T00:16:07;101679.28;;;1.30;100.00
65760;BME280;52496;51.082;5.066;2023-04-06T00:18:38;101673.38;;;1.27;100.00
65760;BME280;52496;51.082;5.066;2023-04-06T00:21:13;101666.50;;;1.24;100.00
65760;BME280;52496;51.082;5.066;2023-04-06T00:23:44;101668.44;;;1.22;100.00
65760;BME280;52496;51.082;5.066;2023-04-06T00:26:14;101670.31;;;1.20;100.00
65760;BME280;52496;51.082;5.066;2023-04-06T00:28:45;101676.75;;;1.16;100.00
65760;BME280;52496;51.082;5.066;2023-04-06T00:31:16;101673.38;;;1.14;100.00
65760;BME280;52496;51.082;5.066;2023-04-06T00:33:48;101661.16;;;1.13;100.00
65760;BME280;52496;51.082;5.066;2023-04-06T00:36:18;101663.25;;;1.08;100.00
65760;BME280;52496;51.082;5.066;2023-04-06T00:38:49;101665.88;;;1.08;100.00
65760;BME280;52496;51.082;5.066;2023-04-06T00:41:19;101645.97;;;1.04;100.00
65760;BME280;52496;51.082;5.066;2023-04-06T00:43:50;101654.78;;;1.03;100.00
65760;BME280;52496;51.082;5.066;2023-04-06T00:46:21;101652.16;;;1.03;100.00
65760;BME280;52496;51.082;5.066;2023-04-06T00:48:52;101647.84;;;1.02;100.00
65760;BME280;52496;51.082;5.066;2023-04-06T00:51:22;101642.56;;;1.02;100.00
65760;BME280;52496;51.082;5.066;2023-04-06T00:53:53;101657.63;;;1.00;100.00
65760;BME280;52496;51.082;5.066;2023-04-06T00:56:24;101645.50;;;0.97;100.00
65760;BME280;52496;51.082;5.066;2023-04-06T00:58:56;101634.13;;;0.97;100.00
65760;BME280;52496;51.082;5.066;2023-04-06T01:01:27;101632.44;;;0.96;100.00
65760;BME280;52496;51.082;5.066;2023-04-06T01:03:58;101640.34;;;0.96;100.00
65760;BME280;52496;51.082;5.066;2023-04-06T01:06:29;101636.88;;;0.95;100.00
65760;BME280;52496;51.082;5.066;2023-04-06T01:09:00;101635.09;;;0.96;100.00
65760;BME280;52496;51.082;5.066;2023-04-06T01:11:30;101640.34;;;0.96;100.00
65760;BME280;52496;51.082;5.066;2023-04-06T01:14:01;101635.09;;;0.96;100.00
65760;BME280;52496;51.082;5.066;2023-04-06T01:16:33;101630.66;;;0.96;100.00
65760;BME280;52496;51.082;5.066;2023-04-06T01:19:11;101623.72;;;0.95;100.00
65760;BME280;52496;51.082;5.066;2023-04-06T01:21:42;101623.72;;;0.95;100.00
65760;BME280;52496;51.082;5.066;2023-04-06T01:24:12;101624.63;;;0.94;100.00
65760;BME280;52496;51.082;5.066;2023-04-06T01:26:43;101623.78;;;0.94;100.00
65760;BME280;52496;51.082;5.066;2023-04-06T01:29:13;101613.25;;;0.94;100.00
65760;BME280;52496;51.082;5.066;2023-04-06T01:31:44;101617.59;;;0.95;100.00
65760;BME280;52496;51.082;5.066;2023-04-06T01:34:15;101607.78;;;0.97;100.00
65760;BME280;52496;51.082;5.066;2023-04-06T01:36:45;101609.50;;;0.98;100.00
65760;BME280;52496;51.082;5.066;2023-04-06T01:39:16;101604.88;;;1.01;100.00
65760;BME280;52496;51.082;5.066;2023-04-06T01:41:46;101603.81;;;1.04;100.00
65760;BME280;52496;51.082;5.066;2023-04-06T01:44:18;101602.66;;;1.08;100.00
65760;BME280;52496;51.082;5.066;2023-04-06T01:46:49;101592.66;;;1.13;100.00
65760;BME280;52496;51.082;5.066;2023-04-06T01:49:20;101602.03;;;1.17;100.00
65760;BME280;52496;51.082;5.066;2023-04-06T01:51:51;101588.44;;;1.23;100.00
65760;BME280;52496;51.082;5.066;2023-04-06T01:54:24;101581.91;;;1.29;100.00
65760;BME280;52496;51.082;5.066;2023-04-06T01:56:54;101584.09;;;1.35;100.00
65760;BME280;52496;51.082;5.066;2023-04-06T01:59:25;101580.22;;;1.41;100.00
65760;BME280;52496;51.082;5.066;2023-04-06T02:01:55;101574.50;;;1.47;100.00
65760;BME280;52496;51.082;5.066;2023-04-06T02:04:26;101579.34;;;1.53;100.00
65760;BME280;52496;51.082;5.066;2023-04-06T02:06:57;101578.91;;;1.59;100.00
65760;BME280;52496;51.082;5.066;2023-04-06T02:09:27;101583.75;;;1.65;100.00
65760;BME280;52496;51.082;5.066;2023-04-06T02:11:58;101581.53;;;1.72;100.00
65760;BME280;52496;51.082;5.066;2023-04-06T02:14:28;101583.72;;;1.78;100.00
65760;BME280;52496;51.082;5.066;2023-04-06T02:16:59;101577.19;;;1.83;100.00
65760;BME280;52496;51.082;5.066;2023-04-06T02:19:30;101572.38;;;1.89;100.00
65760;BME280;52496;51.082;5.066;2023-04-06T02:22:01;101572.16;;;1.92;100.00
65760;BME280;52496;51.082;5.066;2023-04-06T02:24:32;101565.75;;;1.96;100.00
65760;BME280;52496;51.082;5.066;2023-04-06T02:27:02;101572.47;;;2.00;100.00
65760;BME280;52496;51.082;5.066;2023-04-06T02:29:33;101564.34;;;2.03;100.00
65760;BME280;52496;51.082;5.066;2023-04-06T02:32:04;101561.47;;;2.06;100.00
65760;BME280;52496;51.082;5.066;2023-04-06T02:34:34;101551.53;;;2.10;100.00
65760;BME280;52496;51.082;5.066;2023-04-06T02:37:05;101561.75;;;2.14;100.00
65760;BME280;52496;51.082;5.066;2023-04-06T02:39:35;101551.22;;;2.14;100.00
65760;BME280;52496;51.082;5.066;2023-04-06T02:42:06;101550.84;;;2.19;100.00
65760;BME280;52496;51.082;5.066;2023-04-06T02:44:36;101549.78;;;2.21;100.00
65760;BME280;52496;51.082;5.066;2023-04-06T02:47:07;101551.28;;;2.25;100.00
65760;BME280;52496;51.082;5.066;2023-04-06T02:49:38;101544.81;;;2.29;100.00
65760;BME280;52496;51.082;5.066;2023-04-06T02:52:08;101543.59;;;2.34;100.00
65760;BME280;52496;51.082;5.066;2023-04-06T02:54:39;101538.94;;;2.37;100.00
65760;BME280;52496;51.082;5.066;2023-04-06T02:57:09;101532.59;;;2.40;100.00
65760;BME280;52496;51.082;5.066;2023-04-06T02:59:40;101528.06;;;2.42;100.00
65760;BME280;52496;51.082;5.066;2023-04-06T03:02:10;101531.28;;;2.45;100.00
65760;BME280;52496;51.082;5.066;2023-04-06T03:04:42;101530.22;;;2.48;100.00
65760;BME280;52496;51.082;5.066;2023-04-06T03:07:12;101532.66;;;2.51;100.00
65760;BME280;52496;51.082;5.066;2023-04-06T03:09:42;101524.72;;;2.51;100.00
65760;BME280;52496;51.082;5.066;2023-04-06T03:12:13;101528.09;;;2.53;100.00
65760;BME280;52496;51.082;5.066;2023-04-06T03:14:43;101535.78;;;2.56;100.00
65760;BME280;52496;51.082;5.066;2023-04-06T03:17:14;101525.09;;;2.58;100.00
65760;BME280;52496;51.082;5.066;2023-04-06T03:19:45;101532.91;;;2.59;100.00
65760;BME280;52496;51.082;5.066;2023-04-06T03:22:15;101524.03;;;2.60;100.00
65760;BME280;52496;51.082;5.066;2023-04-06T03:24:46;101522.47;;;2.58;100.00
65760;BME280;52496;51.082;5.066;2023-04-06T03:27:16;101524.88;;;2.61;100.00
65760;BME280;52496;51.082;5.066;2023-04-06T03:29:47;101526.56;;;2.62;100.00
65760;BME280;52496;51.082;5.066;2023-04-06T03:32:17;101525.69;;;2.61;100.00
65760;BME280;52496;51.082;5.066;2023-04-06T03:34:48;101520.41;;;2.61;100.00
65760;BME280;52496;51.082;5.066;2023-04-06T03:37:18;101517.78;;;2.61;100.00
65760;BME280;52496;51.082;5.066;2023-04-06T03:39:49;101510.81;;;2.60;100.00
65760;BME280;52496;51.082;5.066;2023-04-06T03:42:20;101513.22;;;2.63;100.00
65760;BME280;52496;51.082;5.066;2023-04-06T03:44:50;101521.88;;;2.65;100.00
65760;BME280;52496;51.082;5.066;2023-04-06T03:47:20;101515.63;;;2.66;100.00
65760;BME280;52496;51.082;5.066;2023-04-06T03:49:51;101516.38;;;2.68;100.00
65760;BME280;52496;51.082;5.066;2023-04-06T03:52:22;101506.66;;;2.69;100.00
65760;BME280;52496;51.082;5.066;2023-04-06T03:54:53;101505.56;;;2.71;100.00
65760;BME280;52496;51.082;5.066;2023-04-06T03:57:24;101501.88;;;2.74;100.00
65760;BME280;52496;51.082;5.066;2023-04-06T03:59:55;101506.03;;;2.76;100.00
65760;BME280;52496;51.082;5.066;2023-04-06T04:02:26;101505.94;;;2.78;100.00
65760;BME280;52496;51.082;5.066;2023-04-06T04:04:57;101510.16;;;2.81;100.00
65760;BME280;52496;51.082;5.066;2023-04-06T04:07:27;101505.47;;;2.84;100.00
65760;BME280;52496;51.082;5.066;2023-04-06T04:09:58;101501.75;;;2.87;100.00
65760;BME280;52496;51.082;5.066;2023-04-06T04:12:28;101505.09;;;2.89;100.00
65760;BME280;52496;51.082;5.066;2023-04-06T04:14:59;101500.31;;;2.94;100.00
65760;BME280;52496;51.082;5.066;2023-04-06T04:17:29;101497.44;;;2.97;100.00
65760;BME280;52496;51.082;5.066;2023-04-06T04:20:00;101502.47;;;3.00;100.00
65760;BME280;52496;51.082;5.066;2023-04-06T04:22:31;101504.88;;;3.03;100.00
65760;BME280;52496;51.082;5.066;2023-04-06T04:25:01;101516.19;;;3.05;100.00
65760;BME280;52496;51.082;5.066;2023-04-06T04:27:32;101508.03;;;3.08;100.00
65760;BME280;52496;51.082;5.066;2023-04-06T04:30:03;101506.09;;;3.10;100.00
65760;BME280;52496;51.082;5.066;2023-04-06T04:32:33;101506.94;;;3.11;100.00
65760;BME280;52496;51.082;5.066;2023-04-06T04:35:04;101502.38;;;3.13;100.00
65760;BME280;52496;51.082;5.066;2023-04-06T04:37:35;101515.34;;;3.16;100.00
65760;BME280;52496;51.082;5.066;2023-04-06T04:40:06;101501.19;;;3.17;100.00
65760;BME280;52496;51.082;5.066;2023-04-06T04:42:36;101504.41;;;3.20;100.00
65760;BME280;52496;51.082;5.066;2023-04-06T04:45:07;101499.97;;;3.21;100.00
65760;BME280;52496;51.082;5.066;2023-04-06T04:47:37;101501.53;;;3.24;100.00
65760;BME280;52496;51.082;5.066;2023-04-06T04:50:08;101499.59;;;3.26;100.00
65760;BME280;52496;51.082;5.066;2023-04-06T04:52:39;101492.41;;;3.28;100.00
65760;BME280;52496;51.082;5.066;2023-04-06T04:55:10;101501.06;;;3.30;100.00
65760;BME280;52496;51.082;5.066;2023-04-06T04:57:40;101496.50;;;3.32;100.00
65760;BME280;52496;51.082;5.066;2023-04-06T05:00:12;101496.25;;;3.35;100.00
65760;BME280;52496;51.082;5.066;2023-04-06T05:02:43;101494.19;;;3.38;100.00
65760;BME280;52496;51.082;5.066;2023-04-06T05:05:13;101499.25;;;3.41;100.00
65760;BME280;52496;51.082;5.066;2023-04-06T05:07:44;101505.13;;;3.45;100.00
65760;BME280;52496;51.082;5.066;2023-04-06T05:10:14;101504.88;;;3.48;100.00
65760;BME280;52496;51.082;5.066;2023-04-06T05:12:45;101511.75;;;3.51;100.00
65760;BME280;52496;51.082;5.066;2023-04-06T05:15:15;101504.41;;;3.54;100.00
65760;BME280;52496;51.082;5.066;2023-04-06T05:17:46;101505.13;;;3.56;100.00
65760;BME280;52496;51.082;5.066;2023-04-06T05:20:16;101491.66;;;3.59;100.00
65760;BME280;52496;51.082;5.066;2023-04-06T05:22:47;101497.63;;;3.61;100.00
65760;BME280;52496;51.082;5.066;2023-04-06T05:25:18;101494.75;;;3.64;100.00
65760;BME280;52496;51.082;5.066;2023-04-06T05:27:48;101496.19;;;3.68;100.00
65760;BME280;52496;51.082;5.066;2023-04-06T05:30:20;101502.09;;;3.72;100.00
65760;BME280;52496;51.082;5.066;2023-04-06T05:32:50;101492.09;;;3.76;100.00
65760;BME280;52496;51.082;5.066;2023-04-06T05:35:21;101497.97;;;3.79;100.00
65760;BME280;52496;51.082;5.066;2023-04-06T05:37:51;101502.03;;;3.83;100.00
65760;BME280;52496;51.082;5.066;2023-04-06T05:40:22;101499.13;;;3.86;100.00
65760;BME280;52496;51.082;5.066;2023-04-06T05:42:53;101492.75;;;3.89;100.00
65760;BME280;52496;51.082;5.066;2023-04-06T05:45:24;101494.22;;;3.93;100.00
65760;BME280;52496;51.082;5.066;2023-04-06T05:47:54;101500.94;;;3.97;100.00
65760;BME280;52496;51.082;5.066;2023-04-06T05:50:25;101500.69;;;4.00;100.00
65760;BME280;52496;51.082;5.066;2023-04-06T05:52:55;101498.75;;;4.02;100.00
65760;BME280;52496;51.082;5.066;2023-04-06T05:55:26;101504.63;;;4.06;100.00
65760;BME280;52496;51.082;5.066;2023-04-06T05:57:58;101504.38;;;4.09;100.00
65760;BME280;52496;51.082;5.066;2023-04-06T06:00:28;101506.63;;;4.13;99.82
65760;BME280;52496;51.082;5.066;2023-04-06T06:02:59;101508.91;;;4.18;99.78
65760;BME280;52496;51.082;5.066;2023-04-06T06:05:30;101501.44;;;4.23;100.00
65760;BME280;52496;51.082;5.066;2023-04-06T06:08:00;101495.75;;;4.28;100.00
65760;BME280;52496;51.082;5.066;2023-04-06T06:10:32;101496.22;;;4.33;100.00
65760;BME280;52496;51.082;5.066;2023-04-06T06:13:02;101499.31;;;4.38;100.00
65760;BME280;52496;51.082;5.066;2023-04-06T06:15:33;101493.50;;;4.44;100.00
65760;BME280;52496;51.082;5.066;2023-04-06T06:18:03;101493.69;;;4.52;100.00
65760;BME280;52496;51.082;5.066;2023-04-06T06:20:34;101494.75;;;4.61;100.00
65760;BME280;52496;51.082;5.066;2023-04-06T06:23:04;101494.78;;;4.71;100.00
65760;BME280;52496;51.082;5.066;2023-04-06T06:25:35;101504.59;;;4.80;100.00
65760;BME280;52496;51.082;5.066;2023-04-06T06:28:05;101489.63;;;4.90;100.00
65760;BME280;52496;51.082;5.066;2023-04-06T06:30:36;101495.81;;;5.00;100.00
65760;BME280;52496;51.082;5.066;2023-04-06T06:33:06;101499.31;;;5.11;100.00
65760;BME280;52496;51.082;5.066;2023-04-06T06:35:37;101498.53;;;5.20;100.00
65760;BME280;52496;51.082;5.066;2023-04-06T06:38:07;101499.44;;;5.30;100.00
65760;BME280;52496;51.082;5.066;2023-04-06T06:40:40;101496.91;;;5.38;100.00
65760;BME280;52496;51.082;5.066;2023-04-06T06:43:10;101490.81;;;5.47;100.00
65760;BME280;52496;51.082;5.066;2023-04-06T06:45:41;101497.13;;;5.56;99.87
65760;BME280;52496;51.082;5.066;2023-04-06T06:48:12;101493.81;;;5.64;98.76
65760;BME280;52496;51.082;5.066;2023-04-06T06:50:42;101486.97;;;5.71;96.57
65760;BME280;52496;51.082;5.066;2023-04-06T06:53:13;101497.19;;;5.85;97.16
65760;BME280;52496;51.082;5.066;2023-04-06T06:55:44;101497.78;;;5.98;96.74
65760;BME280;52496;51.082;5.066;2023-04-06T06:58:15;101500.75;;;6.15;96.50
65760;BME280;52496;51.082;5.066;2023-04-06T07:00:46;101498.91;;;6.35;95.20
65760;BME280;52496;51.082;5.066;2023-04-06T07:03:16;101492.75;;;6.54;93.50
65760;BME280;52496;51.082;5.066;2023-04-06T07:05:49;101493.00;;;6.70;92.26
65760;BME280;52496;51.082;5.066;2023-04-06T07:08:23;101489.88;;;6.84;90.46
65760;BME280;52496;51.082;5.066;2023-04-06T07:10:54;101496.56;;;6.98;92.00
65760;BME280;52496;51.082;5.066;2023-04-06T07:13:28;101483.66;;;7.13;91.25
65760;BME280;52496;51.082;5.066;2023-04-06T07:15:58;101488.19;;;7.30;90.31
65760;BME280;52496;51.082;5.066;2023-04-06T07:18:28;101479.88;;;7.43;89.99
65760;BME280;52496;51.082;5.066;2023-04-06T07:20:59;101488.03;;;7.59;90.26
65760;BME280;52496;51.082;5.066;2023-04-06T07:23:30;101478.00;;;7.71;89.76
65760;BME280;52496;51.082;5.066;2023-04-06T07:26:01;101486.09;;;7.79;88.29
65760;BME280;52496;51.082;5.066;2023-04-06T07:28:31;101485.03;;;7.90;87.91
65760;BME280;52496;51.082;5.066;2023-04-06T07:31:02;101487.59;;;8.00;89.79
65760;BME280;52496;51.082;5.066;2023-04-06T07:33:32;101489.53;;;8.08;88.06
65760;BME280;52496;51.082;5.066;2023-04-06T07:36:03;101493.56;;;8.12;83.15
65760;BME280;52496;51.082;5.066;2023-04-06T07:38:34;101494.03;;;8.07;85.43
65760;BME280;52496;51.082;5.066;2023-04-06T07:41:04;101503.84;;;8.07;85.63
65760;BME280;52496;51.082;5.066;2023-04-06T07:43:35;101500.19;;;8.08;85.56
65760;BME280;52496;51.082;5.066;2023-04-06T07:46:06;101500.72;;;8.11;86.11
65760;BME280;52496;51.082;5.066;2023-04-06T07:48:36;101495.06;;;8.14;84.07
65760;BME280;52496;51.082;5.066;2023-04-06T07:51:07;101498.44;;;8.16;85.17
65760;BME280;52496;51.082;5.066;2023-04-06T07:53:39;101496.13;;;8.21;86.67
65760;BME280;52496;51.082;5.066;2023-04-06T07:56:09;101494.69;;;8.27;85.75
65760;BME280;52496;51.082;5.066;2023-04-06T07:58:40;101502.06;;;8.33;86.71
65760;BME280;52496;51.082;5.066;2023-04-06T08:01:11;101495.47;;;8.37;84.24
65760;BME280;52496;51.082;5.066;2023-04-06T08:03:41;101498.19;;;8.45;85.28
65760;BME280;52496;51.082;5.066;2023-04-06T08:06:11;101503.47;;;8.55;85.26
65760;BME280;52496;51.082;5.066;2023-04-06T08:08:42;101494.84;;;8.61;87.98
65760;BME280;52496;51.082;5.066;2023-04-06T08:11:14;101489.94;;;8.75;85.29
65760;BME280;52496;51.082;5.066;2023-04-06T08:13:44;101492.50;;;8.84;85.51
65760;BME280;52496;51.082;5.066;2023-04-06T08:16:15;101490.09;;;8.99;86.89
65760;BME280;52496;51.082;5.066;2023-04-06T08:18:45;101496.50;;;9.14;86.07
65760;BME280;52496;51.082;5.066;2023-04-06T08:21:16;101485.25;;;9.29;83.80
65760;BME280;52496;51.082;5.066;2023-04-06T08:23:46;101497.94;;;9.43;84.80
65760;BME280;52496;51.082;5.066;2023-04-06T08:26:17;101491.97;;;9.49;82.26
65760;BME280;52496;51.082;5.066;2023-04-06T08:28:48;101501.19;;;9.55;83.58
65760;BME280;52496;51.082;5.066;2023-04-06T08:31:18;101507.19;;;9.57;82.69
65760;BME280;52496;51.082;5.066;2023-04-06T08:33:49;101500.66;;;9.51;83.64
65760;BME280;52496;51.082;5.066;2023-04-06T08:36:20;101503.34;;;9.51;85.85
65760;BME280;52496;51.082;5.066;2023-04-06T08:38:52;101500.16;;;9.48;85.69
65760;BME280;52496;51.082;5.066;2023-04-06T08:41:24;101498.50;;;9.47;86.74
65760;BME280;52496;51.082;5.066;2023-04-06T08:44:00;101495.66;;;9.48;87.36
65760;BME280;52496;51.082;5.066;2023-04-06T08:46:31;101497.50;;;9.48;88.12
65760;BME280;52496;51.082;5.066;2023-04-06T08:49:02;101505.00;;;9.44;87.99
65760;BME280;52496;51.082;5.066;2023-04-06T08:51:36;101505.44;;;9.39;91.42
65760;BME280;52496;51.082;5.066;2023-04-06T08:54:07;101502.13;;;9.37;92.14
65760;BME280;52496;51.082;5.066;2023-04-06T08:56:39;101505.31;;;9.41;95.98
65760;BME280;52496;51.082;5.066;2023-04-06T08:59:09;101500.63;;;9.43;93.99
65760;BME280;52496;51.082;5.066;2023-04-06T09:01:42;101508.31;;;9.46;96.71
65760;BME280;52496;51.082;5.066;2023-04-06T09:04:15;101513.97;;;9.43;97.75
65760;BME280;52496;51.082;5.066;2023-04-06T09:06:46;101511.63;;;9.40;97.10
65760;BME280;52496;51.082;5.066;2023-04-06T09:09:17;101509.28;;;9.37;98.03
65760;BME280;52496;51.082;5.066;2023-04-06T09:11:49;101505.97;;;9.43;100.00
65760;BME280;52496;51.082;5.066;2023-04-06T09:14:36;101509.38;;;9.53;100.00
65760;BME280;52496;51.082;5.066;2023-04-06T09:17:08;101498.34;;;9.56;100.00
65760;BME280;52496;51.082;5.066;2023-04-06T09:19:49;101492.50;;;9.61;100.00
65760;BME280;52496;51.082;5.066;2023-04-06T09:22:20;101499.72;;;9.69;100.00
65760;BME280;52496;51.082;5.066;2023-04-06T09:24:52;101510.41;;;9.77;100.00
65760;BME280;52496;51.082;5.066;2023-04-06T09:27:33;101504.75;;;9.80;100.00
65760;BME280;52496;51.082;5.066;2023-04-06T09:30:11;101509.78;;;9.83;100.00
65760;BME280;52496;51.082;5.066;2023-04-06T09:32:54;101507.75;;;9.77;100.00
65760;BME280;52496;51.082;5.066;2023-04-06T09:35:25;101503.41;;;9.76;100.00
65760;BME280;52496;51.082;5.066;2023-04-06T09:38:10;101505.41;;;9.74;100.00
65760;BME280;52496;51.082;5.066;2023-04-06T09:40:50;101501.06;;;9.73;100.00
65760;BME280;52496;51.082;5.066;2023-04-06T09:43:27;101504.75;;;9.72;100.00
65760;BME280;52496;51.082;5.066;2023-04-06T09:46:00;101498.06;;;9.76;100.00
65760;BME280;52496;51.082;5.066;2023-04-06T09:48:34;101496.75;;;9.72;100.00
65760;BME280;52496;51.082;5.066;2023-04-06T09:51:06;101505.22;;;9.67;100.00
65760;BME280;52496;51.082;5.066;2023-04-06T09:53:41;101490.34;;;9.64;100.00
65760;BME280;52496;51.082;5.066;2023-04-06T09:56:17;101492.03;;;9.65;100.00
65760;BME280;52496;51.082;5.066;2023-04-06T09:58:54;101494.53;;;9.67;100.00
65760;BME280;52496;51.082;5.066;2023-04-06T10:01:28;101488.22;;;9.68;100.00
65760;BME280;52496;51.082;5.066;2023-04-06T10:04:08;101494.06;;;9.72;100.00
65760;BME280;52496;51.082;5.066;2023-04-06T10:06:42;101488.03;;;9.70;100.00
65760;BME280;52496;51.082;5.066;2023-04-06T10:09:14;101494.03;;;9.63;100.00
65760;BME280;52496;51.082;5.066;2023-04-06T10:11:45;101496.38;;;9.67;100.00
65760;BME280;52496;51.082;5.066;2023-04-06T10:14:17;101495.53;;;9.66;100.00
65760;BME280;52496;51.082;5.066;2023-04-06T10:16:49;101487.53;;;9.66;100.00
65760;BME280;52496;51.082;5.066;2023-04-06T10:19:27;101492.38;;;9.71;100.00
65760;BME280;52496;51.082;5.066;2023-04-06T10:21:59;101500.38;;;9.71;100.00
65760;BME280;52496;51.082;5.066;2023-04-06T10:24:33;101493.38;;;9.70;100.00
65760;BME280;52496;51.082;5.066;2023-04-06T10:27:04;101484.03;;;9.74;100.00
65760;BME280;52496;51.082;5.066;2023-04-06T10:29:47;101486.06;;;9.72;100.00
65760;BME280;52496;51.082;5.066;2023-04-06T10:32:40;101490.75;;;9.78;100.00
65760;BME280;52496;51.082;5.066;2023-04-06T10:35:11;101485.06;;;9.81;100.00
65760;BME280;52496;51.082;5.066;2023-04-06T10:38:05;101484.56;;;9.77;100.00
65760;BME280;52496;51.082;5.066;2023-04-06T10:40:37;101487.06;;;9.79;100.00
65760;BME280;52496;51.082;5.066;2023-04-06T10:43:13;101482.88;;;9.76;100.00
65760;BME280;52496;51.082;5.066;2023-04-06T10:45:54;101479.88;;;9.79;100.00
65760;BME280;52496;51.082;5.066;2023-04-06T10:48:36;101480.22;;;9.84;100.00
65760;BME280;52496;51.082;5.066;2023-04-06T10:51:15;101475.38;;;9.88;100.00
65760;BME280;52496;51.082;5.066;2023-04-06T10:53:47;101472.41;;;9.99;100.00
65760;BME280;52496;51.082;5.066;2023-04-06T10:56:22;101478.78;;;10.15;100.00
65760;BME280;52496;51.082;5.066;2023-04-06T10:58:53;101480.16;;;10.27;100.00
65760;BME280;52496;51.082;5.066;2023-04-06T11:01:26;101465.44;;;10.39;100.00
65760;BME280;52496;51.082;5.066;2023-04-06T11:03:57;101458.94;;;10.50;100.00
65760;BME280;52496;51.082;5.066;2023-04-06T11:06:30;101458.91;;;10.58;100.00
65760;BME280;52496;51.082;5.066;2023-04-06T11:09:01;101461.56;;;10.58;100.00
65760;BME280;52496;51.082;5.066;2023-04-06T11:11:38;101456.22;;;10.58;100.00
65760;BME280;52496;51.082;5.066;2023-04-06T11:14:09;101460.41;;;10.61;100.00
65760;BME280;52496;51.082;5.066;2023-04-06T11:16:40;101454.72;;;10.72;100.00
65760;BME280;52496;51.082;5.066;2023-04-06T11:19:10;101457.00;;;10.83;100.00
65760;BME280;52496;51.082;5.066;2023-04-06T11:21:44;101448.97;;;10.91;100.00
65760;BME280;52496;51.082;5.066;2023-04-06T11:24:19;101454.31;;;10.99;100.00
65760;BME280;52496;51.082;5.066;2023-04-06T11:26:53;101448.94;;;10.99;100.00
65760;BME280;52496;51.082;5.066;2023-04-06T11:29:27;101441.28;;;10.96;100.00
65760;BME280;52496;51.082;5.066;2023-04-06T11:32:05;101447.66;;;10.87;100.00
65760;BME280;52496;51.082;5.066;2023-04-06T11:34:37;101435.13;;;10.79;100.00
65760;BME280;52496;51.082;5.066;2023-04-06T11:37:10;101435.94;;;10.80;100.00
65760;BME280;52496;51.082;5.066;2023-04-06T11:39:49;101431.25;;;10.82;100.00
65760;BME280;52496;51.082;5.066;2023-04-06T11:42:25;101426.25;;;10.87;100.00
65760;BME280;52496;51.082;5.066;2023-04-06T11:44:57;101424.53;;;10.94;100.00
65760;BME280;52496;51.082;5.066;2023-04-06T11:47:29;101421.53;;;10.97;100.00
65760;BME280;52496;51.082;5.066;2023-04-06T11:50:18;101420.91;;;10.87;100.00
65760;BME280;52496;51.082;5.066;2023-04-06T11:52:58;101417.72;;;10.84;100.00
65760;BME280;52496;51.082;5.066;2023-04-06T11:55:37;101425.91;;;10.82;100.00
65760;BME280;52496;51.082;5.066;2023-04-06T11:58:07;101417.91;;;10.74;100.00
65760;BME280;52496;51.082;5.066;2023-04-06T12:00:38;101416.59;;;10.70;100.00
65760;BME280;52496;51.082;5.066;2023-04-06T12:03:09;101418.25;;;10.71;100.00
65760;BME280;52496;51.082;5.066;2023-04-06T12:05:39;101417.75;;;10.67;100.00
65760;BME280;52496;51.082;5.066;2023-04-06T12:08:10;101406.56;;;10.64;100.00
65760;BME280;52496;51.082;5.066;2023-04-06T12:10:40;101413.56;;;10.65;100.00
65760;BME280;52496;51.082;5.066;2023-04-06T12:13:11;101404.91;;;10.63;100.00
65760;BME280;52496;51.082;5.066;2023-04-06T12:15:42;101402.06;;;10.64;100.00
65760;BME280;52496;51.082;5.066;2023-04-06T12:18:12;101407.41;;;10.64;100.00
65760;BME280;52496;51.082;5.066;2023-04-06T12:20:42;101403.06;;;10.63;100.00
65760;BME280;52496;51.082;5.066;2023-04-06T12:23:13;101401.06;;;10.57;100.00
65760;BME280;52496;51.082;5.066;2023-04-06T12:25:44;101412.47;;;10.51;100.00
65760;BME280;52496;51.082;5.066;2023-04-06T12:28:15;101408.47;;;10.47;100.00
65760;BME280;52496;51.082;5.066;2023-04-06T12:30:46;101403.94;;;10.39;100.00
65760;BME280;52496;51.082;5.066;2023-04-06T12:33:16;101400.94;;;10.34;100.00
65760;BME280;52496;51.082;5.066;2023-04-06T12:35:47;101402.25;;;10.22;100.00
65760;BME280;52496;51.082;5.066;2023-04-06T12:38:17;101397.59;;;10.16;100.00
65760;BME280;52496;51.082;5.066;2023-04-06T12:40:48;101402.59;;;10.19;100.00
65760;BME280;52496;51.082;5.066;2023-04-06T12:43:18;101391.91;;;10.19;100.00
65760;BME280;52496;51.082;5.066;2023-04-06T12:45:49;101381.88;;;10.21;100.00
65760;BME280;52496;51.082;5.066;2023-04-06T12:48:20;101379.69;;;10.24;100.00
65760;BME280;52496;51.082;5.066;2023-04-06T12:50:55;101388.91;;;10.30;100.00
65760;BME280;52496;51.082;5.066;2023-04-06T12:53:26;101380.53;;;10.25;100.00
65760;BME280;52496;51.082;5.066;2023-04-06T12:55:57;101378.88;;;10.16;100.00
65760;BME280;52496;51.082;5.066;2023-04-06T12:58:28;101369.38;;;10.05;100.00
65760;BME280;52496;51.082;5.066;2023-04-06T13:00:59;101365.69;;;9.98;100.00
65760;BME280;52496;51.082;5.066;2023-04-06T13:03:33;101370.03;;;9.99;100.00
65760;BME280;52496;51.082;5.066;2023-04-06T13:06:04;101371.88;;;10.06;100.00
65760;BME280;52496;51.082;5.066;2023-04-06T13:08:35;101359.81;;;10.19;100.00
65760;BME280;52496;51.082;5.066;2023-04-06T13:11:08;101357.19;;;10.27;100.00
65760;BME280;52496;51.082;5.066;2023-04-06T13:13:39;101353.81;;;10.33;100.00